Time;durP1;ratioP1;P1;durP2;ratioP2;P2;SDS_P1;SDS_P2;PMS_P1;PMS_P2;Temp;Humidity;BMP_temperature;BMP_pressure;BME280_temperature;BME280_humidity;BME280_pressure;Samples;Min_cycle;Max_cycle;Signal;HPM_P1;HPM_P2
2023/07/31 00:01:49;;;;;;;5.80;4.85;;;;;;;;;;4997692;28;20049;-92
2023/07/31 00:04:15;;;;;;;6.80;4.30;;;;;;;;;;4967589;28;20193;-94
2023/07/31 00:06:41;;;;;;;6.95;4.72;;;;;;;;;;4966165;28;20053;-94
2023/07/31 00:09:07;;;;;;;4.68;3.65;;;;;;;;;;4981240;28;20045;-90
2023/07/31 00:11:33;;;;;;;7.63;4.45;;;;;;;;;;4964842;28;20042;-89
2023/07/31 00:13:59;;;;;;;11.60;4.20;;;;;;;;;;4965017;28;20045;-87
2023/07/31 00:16:25;;;;;;;4.43;3.05;;;;;;;;;;4980870;28;20045;-88
2023/07/31 00:18:51;;;;;;;4.10;1.50;;;;;;;;;;4980471;28;20045;-87
2023/07/31 00:21:17;;;;;;;2.47;2.00;;;;;;;;;;4996344;28;20048;-88
2023/07/31 00:23:44;;;;;;;3.10;1.98;;;;;;;;;;4997276;28;20045;-91
2023/07/31 00:26:10;;;;;;;4.85;2.20;;;;;;;;;;4997901;28;20077;-93
2023/07/31 00:28:36;;;;;;;6.35;3.50;;;;;;;;;;4980640;28;20085;-93
2023/07/31 00:31:03;;;;;;;6.32;3.10;;;;;;;;;;4980859;28;20038;-93
2023/07/31 00:33:31;;;;;;;4.75;2.83;;;17.00;98.60;;;;;;4977403;28;20062;-86
2023/07/31 00:35:57;;;;;;;2.85;2.33;;;;;;;;;;4977372;28;20050;-90
2023/07/31 00:38:23;;;;;;;8.15;3.13;;;;;;;;;;4977769;28;20380;-90
2023/07/31 00:40:49;;;;;;;6.32;2.80;;;;;;;;;;4977309;28;20079;-94
2023/07/31 00:43:16;;;;;;;4.40;3.22;;;;;;;;;;4977311;28;20042;-91
2023/07/31 00:45:42;;;;;;;5.80;2.55;;;;;;;;;;4993746;28;20459;-93
2023/07/31 00:48:08;;;;;;;5.25;2.72;;;;;;;;;;4977310;28;20128;-91
2023/07/31 00:50:35;;;;;;;2.72;2.50;;;17.00;98.80;;;;;;4977307;28;20046;-91
2023/07/31 00:53:02;;;;;;;3.35;2.53;;;;;;;;;;4993763;28;20054;-90
2023/07/31 00:55:28;;;;;;;3.13;2.80;;;;;;;;;;4977254;28;20046;-91
2023/07/31 00:57:55;;;;;;;5.13;2.95;;;;;;;;;;4977488;28;20066;-94
2023/07/31 01:00:22;;;;;;;4.18;3.28;;;;;;;;;;4979479;28;20053;-95
2023/07/31 01:02:50;;;;;;;2.45;2.20;;;16.60;99.90;;;;;;4978740;28;20567;-90
2023/07/31 01:05:16;;;;;;;3.20;2.28;;;;;;;;;;4995067;28;20046;-96
2023/07/31 01:07:56;;;;;;;2.30;2.10;;;16.40;99.90;;;;;;4995749;28;20053;-89
2023/07/31 01:10:36;;;;;;;4.47;2.25;;;16.50;99.90;;;;;;4994339;28;20042;-94
2023/07/31 01:13:04;;;;;;;2.67;2.03;;;16.60;99.90;;;;;;4993587;28;20043;-95
2023/07/31 01:15:30;;;;;;;2.25;1.63;;;;;;;;;;4994284;28;20513;-95
2023/07/31 01:17:57;;;;;;;6.28;2.35;;;;;;;;;;4961346;28;20046;-92
2023/07/31 01:20:26;;;;;;;2.58;2.38;;;16.60;99.90;;;;;;4994178;28;20100;-88
2023/07/31 01:23:17;;;;;;;3.40;2.40;;;16.70;99.90;;;;;;4992984;28;20130;-94
2023/07/31 01:26:11;;;;;;;4.32;3.15;;;16.50;98.90;;;;;;4994009;28;20042;-91
2023/07/31 01:28:41;;;;;;;3.53;3.08;;;;;;;;;;4994431;28;20080;-92
2023/07/31 01:31:10;;;;;;;3.75;3.45;;;16.60;99.90;;;;;;4993539;28;20086;-92
2023/07/31 01:33:37;;;;;;;6.32;3.78;;;;;;;;;;4992498;28;20065;-95
2023/07/31 01:36:03;;;;;;;6.38;4.10;;;;;;;;;;4976747;28;20406;-89
2023/07/31 01:38:29;;;;;;;6.53;3.90;;;;;;;;;;4992452;28;20052;-89
2023/07/31 01:40:55;;;;;;;6.18;3.80;;;;;;;;;;4976325;28;20125;-91
2023/07/31 01:43:21;;;;;;;4.15;3.75;;;;;;;;;;4976107;28;20487;-88
2023/07/31 01:45:47;;;;;;;5.15;3.97;;;16.60;99.90;;;;;;4992782;28;20492;-91
2023/07/31 01:48:13;;;;;;;4.95;4.00;;;;;;;;;;4992155;28;20085;-91
2023/07/31 01:50:39;;;;;;;4.97;3.42;;;;;;;;;;4976025;28;20133;-92
2023/07/31 01:53:05;;;;;;;7.05;4.22;;;;;;;;;;4992123;28;20503;-90
2023/07/31 01:55:31;;;;;;;4.40;3.47;;;;;;;;;;4992231;28;20049;-89
2023/07/31 01:57:57;;;;;;;4.53;3.50;;;;;;;;;;4976454;28;20057;-89
2023/07/31 02:00:23;;;;;;;4.82;3.40;;;;;;;;;;4976599;28;20039;-92
2023/07/31 02:02:50;;;;;;;3.95;3.65;;;;;;;;;;4975903;28;20061;-93
2023/07/31 02:05:16;;;;;;;4.68;3.22;;;;;;;;;;4992073;28;20450;-93
2023/07/31 02:07:41;;;;;;;4.85;3.78;;;16.60;99.90;;;;;;4976309;28;20052;-93
2023/07/31 02:10:07;;;;;;;3.72;3.38;;;;;;;;;;4944247;28;20129;-92
2023/07/31 02:12:33;;;;;;;4.30;3.35;;;16.20;99.90;;;;;;4976203;28;20050;-91
2023/07/31 02:14:59;;;;;;;3.72;3.17;;;;;;;;;;4959528;28;20100;-89
2023/07/31 02:17:25;;;;;;;3.88;3.22;;;;;;;;;;4959315;28;20050;-89
2023/07/31 02:19:52;;;;;;;3.30;3.00;;;;;;;;;;4991257;28;20443;-89
2023/07/31 02:22:18;;;;;;;3.30;2.72;;;;;;;;;;4975107;28;20058;-89
2023/07/31 02:24:44;;;;;;;3.70;2.95;;;;;;;;;;4975214;28;20129;-88
2023/07/31 02:27:10;;;;;;;3.10;2.90;;;;;;;;;;4959114;28;20050;-88
2023/07/31 02:29:36;;;;;;;7.25;3.00;;;;;;;;;;4959259;28;20166;-87
2023/07/31 02:32:02;;;;;;;2.90;2.70;;;;;;;;;;4975084;28;20050;-87
2023/07/31 02:34:28;;;;;;;4.30;2.85;;;;;;;;;;4975363;28;20077;-88
2023/07/31 02:36:54;;;;;;;3.03;2.72;;;;;;;;;;4975326;28;20046;-90
2023/07/31 02:39:20;;;;;;;5.50;3.05;;;;;;;;;;4975291;28;20042;-88
2023/07/31 02:41:47;;;;;;;6.88;3.00;;;;;;;;;;4975440;28;20082;-89
2023/07/31 02:44:14;;;;;;;5.43;2.92;;;;;;;;;;4996803;28;20127;-89
2023/07/31 02:46:40;;;;;;;2.50;2.30;;;;;;;;;;4981347;28;20124;-84
2023/07/31 02:49:06;;;;;;;4.15;2.67;;;;;;;;;;4996036;28;20096;-88
2023/07/31 02:51:32;;;;;;;2.70;2.50;;;;;;;;;;4979316;28;20093;-87
2023/07/31 02:53:58;;;;;;;4.03;2.65;;;;;;;;;;4963029;28;20047;-86
2023/07/31 02:56:24;;;;;;;6.28;3.17;;;;;;;;;;4962660;28;20042;-88
2023/07/31 02:58:50;;;;;;;5.40;2.28;;;;;;;;;;4978390;28;20046;-88
2023/07/31 03:01:17;;;;;;;2.70;2.40;;;;;;;;;;4978849;28;20301;-89
2023/07/31 03:03:43;;;;;;;2.95;2.63;;;;;;;;;;4962264;28;20129;-87
2023/07/31 03:06:09;;;;;;;3.72;2.22;;;;;;;;;;4994492;28;20042;-87
2023/07/31 03:08:35;;;;;;;4.40;2.60;;;;;;;;;;4962901;28;20042;-86
2023/07/31 03:11:01;;;;;;;3.10;2.65;;;;;;;;;;4962562;28;20097;-84
2023/07/31 03:13:27;;;;;;;3.97;2.30;;;;;;;;;;4978618;28;20046;-85
2023/07/31 03:15:53;;;;;;;4.63;2.30;;;;;;;;;;4978802;28;20129;-88
2023/07/31 03:18:19;;;;;;;4.25;2.50;;;;;;;;;;4978619;28;20043;-86
2023/07/31 03:20:45;;;;;;;5.50;2.30;;;;;;;;;;4994660;28;20096;-88
2023/07/31 03:23:11;;;;;;;6.13;2.50;;;;;;;;;;4994647;28;20133;-86
2023/07/31 03:25:38;;;;;;;3.20;2.22;;;;;;;;;;4978516;28;20061;-87
2023/07/31 03:28:04;;;;;;;3.58;2.58;;;;;;;;;;4978405;28;20046;-87
2023/07/31 03:30:30;;;;;;;4.78;2.88;;;;;;;;;;4995347;28;20377;-87
2023/07/31 03:32:56;;;;;;;4.40;2.05;;;;;;;;;;5007424;28;20061;-86
2023/07/31 03:35:22;;;;;;;4.68;2.55;;;;;;;;;;4997635;28;20057;-87
2023/07/31 03:37:48;;;;;;;6.53;2.47;;;;;;;;;;4981060;28;20046;-86
2023/07/31 03:40:14;;;;;;;2.47;2.22;;;;;;;;;;4965175;28;20053;-88
2023/07/31 03:42:40;;;;;;;4.85;2.53;;;;;;;;;;4965860;28;20049;-87
2023/07/31 03:45:07;;;;;;;3.97;2.60;;;15.90;99.90;;;;;;4965226;28;20045;-88
2023/07/31 03:47:33;;;;;;;4.47;2.20;;;;;;;;;;4997896;28;20052;-87
2023/07/31 03:49:59;;;;;;;3.35;1.67;;;;;;;;;;4982161;28;20046;-88
2023/07/31 03:52:25;;;;;;;2.70;1.98;;;;;;;;;;4981473;28;20498;-87
2023/07/31 03:54:51;;;;;;;6.65;2.00;;;;;;;;;;4965076;28;20042;-87
2023/07/31 03:57:17;;;;;;;3.08;1.90;;;;;;;;;;4964955;28;20050;-88
2023/07/31 03:59:43;;;;;;;3.47;1.88;;;;;;;;;;4981104;28;20184;-89
2023/07/31 04:02:09;;;;;;;2.75;1.95;;;;;;;;;;4964443;28;20096;-89
2023/07/31 04:04:35;;;;;;;3.40;2.03;;;;;;;;;;4980290;28;20034;-89
2023/07/31 04:07:01;;;;;;;4.13;1.70;;;;;;;;;;4964577;28;20046;-89
2023/07/31 04:09:27;;;;;;;2.10;1.50;;;;;;;;;;4980822;28;20135;-89
2023/07/31 04:11:53;;;;;;;2.47;1.50;;;;;;;;;;4996668;28;20049;-89
2023/07/31 04:14:19;;;;;;;1.70;1.60;;;;;;;;;;4980657;28;20053;-89
2023/07/31 04:16:45;;;;;;;2.47;1.60;;;;;;;;;;4996530;28;20128;-88
2023/07/31 04:19:16;;;;;;;6.15;2.38;;;;;;;;;;4964373;28;20129;-88
2023/07/31 04:21:42;;;;;;;2.10;1.90;;;;;;;;;;4980206;28;20062;-88
2023/07/31 04:24:08;;;;;;;3.53;1.65;;;;;;;;;;4980307;28;20049;-90
2023/07/31 04:26:34;;;;;;;2.00;1.55;;;;;;;;;;4980171;28;20089;-87
2023/07/31 04:29:00;;;;;;;3.58;1.90;;;;;;;;;;4980195;28;20627;-90
2023/07/31 04:31:26;;;;;;;2.33;1.80;;;;;;;;;;4964177;28;20050;-89
2023/07/31 04:33:52;;;;;;;2.97;1.52;;;;;;;;;;4964389;28;20133;-85
2023/07/31 04:36:21;;;;;;;2.45;1.33;;;;;;;;;;4980374;28;20450;-91
2023/07/31 04:38:47;;;;;;;1.42;1.33;;;;;;;;;;4980778;28;20053;-93
2023/07/31 04:41:13;;;;;;;2.13;1.42;;;;;;;;;;4996569;28;20071;-91
2023/07/31 04:43:40;;;;;;;4.13;1.60;;;;;;;;;;4980536;28;20046;-88
2023/07/31 04:46:06;;;;;;;1.42;1.33;;;;;;;;;;4964085;28;20081;-90
2023/07/31 04:48:32;;;;;;;1.67;1.40;;;;;;;;;;4979983;28;20490;-90
2023/07/31 04:50:58;;;;;;;1.60;1.50;;;;;;;;;;4963643;28;20042;-88
2023/07/31 04:53:25;;;;;;;1.80;1.33;;;;;;;;;;4963784;28;20048;-83
2023/07/31 04:55:51;;;;;;;3.25;1.70;;;;;;;;;;4963848;28;20081;-89
2023/07/31 04:58:17;;;;;;;1.65;1.50;;;;;;;;;;4979832;28;20150;-90
2023/07/31 05:00:43;;;;;;;1.70;1.52;;;;;;;;;;4979695;28;20045;-90
2023/07/31 05:03:10;;;;;;;2.00;1.25;;;;;;;;;;4979702;28;20046;-91
2023/07/31 05:05:36;;;;;;;2.85;1.30;;;;;;;;;;4979114;28;20038;-90
2023/07/31 05:08:02;;;;;;;1.63;1.13;;;;;;;;;;4995875;28;20042;-90
2023/07/31 05:10:29;;;;;;;2.58;1.15;;;;;;;;;;4963548;28;20042;-90
2023/07/31 05:12:55;;;;;;;1.08;1.08;;;;;;;;;;4995921;28;20050;-91
2023/07/31 05:15:21;;;;;;;0.90;0.90;;;;;;;;;;4995116;28;20117;-89
2023/07/31 05:17:47;;;;;;;0.77;0.77;;;;;;;;;;4963496;28;20061;-84
2023/07/31 05:20:16;;;;;;;0.88;0.80;;;;;;;;;;4979102;28;20042;-86
2023/07/31 05:22:42;;;;;;;1.00;0.88;;;;;;;;;;4980056;28;20467;-92
2023/07/31 05:25:08;;;;;;;0.75;0.70;;;;;;;;;;4979076;28;20041;-89
2023/07/31 05:27:34;;;;;;;1.10;0.82;;;;;;;;;;4963237;28;20045;-90
2023/07/31 05:30:00;;;;;;;0.70;0.70;;;;;;;;;;4962735;28;20144;-88
2023/07/31 05:32:26;;;;;;;2.25;1.75;;;;;;;;;;4959649;28;20050;-91
2023/07/31 05:34:53;;;;;;;1.35;1.08;;;;;;;;;;4960076;28;20073;-88
2023/07/31 05:37:19;;;;;;;1.13;0.90;;;;;;;;;;4992133;28;20054;-90
2023/07/31 05:39:45;;;;;;;2.50;0.80;;;;;;;;;;4959854;28;20049;-87
2023/07/31 05:42:11;;;;;;;3.40;1.08;;;;;;;;;;4959749;28;20140;-86
2023/07/31 05:44:37;;;;;;;2.65;0.82;;;;;;;;;;4960272;28;20064;-88
2023/07/31 05:47:03;;;;;;;1.50;1.08;;;;;;;;;;4975962;28;20108;-86
2023/07/31 05:49:29;;;;;;;1.50;0.90;;;;;;;;;;4959529;28;20554;-85
2023/07/31 05:51:55;;;;;;;1.15;1.05;;;;;;;;;;4959882;28;20510;-89
2023/07/31 05:54:22;;;;;;;1.27;1.17;;;;;;;;;;4959696;28;20376;-89
2023/07/31 05:56:48;;;;;;;1.38;1.20;;;;;;;;;;4975780;28;20479;-88
2023/07/31 05:59:14;;;;;;;3.53;1.27;;;;;;;;;;4975257;28;20040;-84
2023/07/31 06:01:40;;;;;;;1.20;1.10;;;;;;;;;;4959157;28;20046;-89
2023/07/31 06:04:06;;;;;;;2.22;1.40;;;;;;;;;;4959230;28;20046;-90
2023/07/31 06:06:32;;;;;;;2.22;1.40;;;;;;;;;;4959554;28;20403;-91
2023/07/31 06:08:58;;;;;;;3.20;1.73;;;;;;;;;;4959201;28;20087;-89
2023/07/31 06:11:24;;;;;;;4.32;1.95;;;;;;;;;;4975478;28;20035;-88
2023/07/31 06:13:50;;;;;;;3.75;2.38;;;;;;;;;;4976896;28;20053;-91
2023/07/31 06:16:16;;;;;;;5.95;2.20;;;;;;;;;;4978015;28;20137;-90
2023/07/31 06:18:43;;;;;;;3.47;2.20;;;;;;;;;;4995307;28;20038;-89
2023/07/31 06:21:09;;;;;;;5.22;2.10;;;16.50;99.90;;;;;;4980308;28;20050;-86
2023/07/31 06:23:36;;;;;;;8.13;2.45;;;;;;;;;;4979698;28;20039;-86
2023/07/31 06:26:02;;;;;;;4.05;2.28;;;;;;;;;;4962981;28;20050;-88
2023/07/31 06:28:31;;;;;;;5.38;2.83;;;;;;;;;;4984702;28;20046;-86
2023/07/31 06:31:01;;;;;;;8.00;3.17;;;;;;;;;;4982008;28;20054;-85
2023/07/31 06:33:27;;;;;;;11.27;3.92;;;;;;;;;;4979436;28;20682;-85
2023/07/31 06:35:53;;;;;;;7.68;3.78;;;;;;;;;;4979051;28;20487;-87
2023/07/31 06:38:22;;;;;;;7.10;3.70;;;;;;;;;;4979671;28;20042;-86
2023/07/31 06:40:49;;;;;;;10.65;4.60;;;;;;;;;;4995238;28;20046;-88
2023/07/31 06:43:15;;;;;;;12.70;4.40;;;;;;;;;;4998347;28;20053;-89
2023/07/31 06:45:41;;;;;;;11.45;4.50;;;;;;;;;;4970011;28;20070;-90
2023/07/31 06:48:07;;;;;;;14.65;4.95;;;;;;;;;;4963346;28;20042;-91
2023/07/31 06:50:33;;;;;;;14.00;4.97;;;;;;;;;;4995754;28;20042;-90
2023/07/31 06:52:59;;;;;;;16.50;5.43;;;;;;;;;;4979301;28;20081;-86
2023/07/31 06:55:26;;;;;;;12.98;6.38;;;16.90;99.90;;;;;;4978909;28;20046;-82
2023/07/31 06:57:54;;;;;;;17.17;5.25;;;17.00;99.90;;;;;;4979204;28;20125;-89
2023/07/31 07:00:21;;;;;;;12.40;5.68;;;17.10;99.90;;;;;;4997731;28;20046;-86
2023/07/31 07:02:48;;;;;;;17.27;6.13;;;;;;;;;;4999979;28;20046;-85
2023/07/31 07:05:14;;;;;;;15.68;6.20;;;;;;;;;;4996954;28;20112;-90
2023/07/31 07:07:41;;;;;;;18.30;5.95;;;;;;;;;;4985846;28;20106;-87
2023/07/31 07:10:07;;;;;;;14.07;4.93;;;;;;;;;;4987782;28;20508;-87
2023/07/31 07:12:33;;;;;;;14.05;5.20;;;;;;;;;;4996029;28;20046;-88
2023/07/31 07:15:00;;;;;;;19.50;5.47;;;;;;;;;;4979482;28;20088;-88
2023/07/31 07:17:27;;;;;;;11.88;4.05;;;17.40;99.90;;;;;;4995207;28;20096;-83
2023/07/31 07:19:53;;;;;;;13.00;4.50;;;17.20;99.90;;;;;;4979183;28;20046;-92
2023/07/31 07:22:19;;;;;;;11.07;4.78;;;;;;;;;;4978876;28;20069;-91
2023/07/31 07:24:45;;;;;;;8.98;4.22;;;;;;;;;;4962514;28;20038;-92
2023/07/31 07:27:11;;;;;;;18.02;4.88;;;;;;;;;;4994559;28;20047;-83
2023/07/31 07:29:38;;;;;;;13.80;5.63;;;17.40;99.90;;;;;;4977636;28;20081;-88
2023/07/31 07:32:04;;;;;;;13.00;4.07;;;;;;;;;;4978873;28;20108;-90
2023/07/31 07:34:31;;;;;;;8.93;4.50;;;;;;;;;;4998005;28;20054;-87
2023/07/31 07:36:57;;;;;;;7.43;3.75;;;;;;;;;;4981485;28;20041;-89
2023/07/31 07:39:22;;;;;;;10.80;3.75;;;17.40;99.90;;;;;;4965873;28;20095;-89
2023/07/31 07:41:48;;;;;;;7.35;3.65;;;;;;;;;;4981502;28;20042;-89
2023/07/31 07:44:15;;;;;;;9.43;4.25;;;17.20;99.90;;;;;;4981574;28;20471;-89
2023/07/31 07:46:41;;;;;;;8.15;4.15;;;;;;;;;;4964933;28;20053;-83
2023/07/31 07:49:07;;;;;;;6.60;3.42;;;;;;;;;;4981147;28;20510;-86
2023/07/31 07:51:33;;;;;;;5.97;3.00;;;;;;;;;;4965758;28;20200;-87
2023/07/31 07:53:59;;;;;;;13.70;3.45;;;;;;;;;;4981491;28;20069;-90
2023/07/31 07:56:27;;;;;;;5.60;2.90;;;17.50;99.90;;;;;;5014592;28;20553;-89
2023/07/31 07:58:53;;;;;;;8.32;3.33;;;;;;;;;;5015022;28;20053;-90
2023/07/31 08:01:19;;;;;;;3.40;3.00;;;;;;;;;;4997611;28;20049;-91
2023/07/31 08:03:45;;;;;;;4.80;2.63;;;;;;;;;;4997074;28;20107;-89
2023/07/31 08:06:11;;;;;;;4.03;2.17;;;;;;;;;;4996880;28;20057;-88
2023/07/31 08:08:38;;;;;;;2.20;1.88;;;;;;;;;;4980535;28;20049;-88
2023/07/31 08:11:04;;;;;;;4.90;1.33;;;;;;;;;;4996560;28;20495;-88
2023/07/31 08:13:30;;;;;;;0.68;0.68;;;;;;;;;;4964477;28;20052;-89
2023/07/31 08:15:56;;;;;;;1.40;0.80;;;;;;;;;;4981056;28;20037;-87
2023/07/31 08:18:22;;;;;;;0.80;0.80;;;;;;;;;;5014256;28;20069;-88
2023/07/31 08:20:48;;;;;;;1.02;0.85;;;;;;;;;;4996585;28;20053;-87
2023/07/31 08:23:15;;;;;;;0.90;0.90;;;;;;;;;;4996517;28;20053;-88
2023/07/31 08:25:41;;;;;;;1.23;0.88;;;;;;;;;;4996249;28;20129;-85
2023/07/31 08:28:07;;;;;;;1.02;0.70;;;;;;;;;;4996586;28;20120;-89
2023/07/31 08:30:33;;;;;;;1.20;0.70;;;;;;;;;;4978908;28;20527;-88
2023/07/31 08:33:00;;;;;;;0.65;0.65;;;17.80;99.90;;;;;;4976451;28;20062;-90
2023/07/31 08:35:29;;;;;;;2.50;0.75;;;;;;;;;;4976640;28;20086;-89
2023/07/31 08:37:55;;;;;;;1.15;1.10;;;;;;;;;;4992061;28;20042;-89
2023/07/31 08:40:22;;;;;;;0.60;0.60;;;;;;;;;;4975950;28;20047;-87
2023/07/31 08:42:49;;;;;;;0.73;0.68;;;;;;;;;;4977124;28;20380;-89
2023/07/31 08:45:19;;;;;;;1.10;1.00;;;17.90;99.90;;;;;;4992989;28;20041;-89
2023/07/31 08:47:49;;;;;;;0.60;0.60;;;17.80;99.90;;;;;;4976461;28;20042;-84
2023/07/31 08:50:17;;;;;;;0.60;0.60;;;17.50;99.90;;;;;;4992788;28;20049;-87
2023/07/31 08:52:43;;;;;;;0.70;0.50;;;;;;;;;;4976705;28;20053;-84
2023/07/31 08:55:10;;;;;;;0.73;0.63;;;;;;;;;;4976775;28;20487;-88
2023/07/31 08:57:38;;;;;;;2.25;0.50;;;17.90;99.90;;;;;;4992839;28;20454;-85
2023/07/31 09:00:07;;;;;;;0.70;0.70;;;;;;;;;;4976656;28;20050;-87
2023/07/31 09:02:44;;;;;;;0.50;0.50;;;;;;;;;;4992271;28;20074;-90
2023/07/31 09:05:11;;;;;;;0.60;0.60;;;18.00;99.90;;;;;;4992490;28;20080;-91
2023/07/31 09:07:37;;;;;;;0.45;0.45;;;;;;;;;;4994227;28;20046;-88
2023/07/31 09:10:04;;;;;;;0.65;0.65;;;17.90;99.90;;;;;;4992147;28;20394;-88
2023/07/31 09:12:30;;;;;;;0.50;0.50;;;;;;;;;;4992726;28;20057;-91
2023/07/31 09:15:01;;;;;;;0.63;0.63;;;18.00;99.90;;;;;;4992962;28;20046;-89
2023/07/31 09:17:31;;;;;;;0.30;0.30;;;17.70;99.90;;;;;;4977089;28;20042;-90
2023/07/31 09:19:58;;;;;;;0.47;0.47;;;;;;;;;;4992817;28;20181;-89
2023/07/31 09:22:34;;;;;;;0.40;0.40;;;17.80;99.90;;;;;;4993261;28;20511;-91
2023/07/31 09:25:16;;;;;;;0.32;0.32;;;;;;;;;;4993441;28;20083;-92
2023/07/31 09:27:51;;;;;;;0.40;0.40;;;;;;;;;;4962740;28;20049;-89
2023/07/31 09:30:18;;;;;;;0.40;0.40;;;18.20;99.90;;;;;;4993346;28;20054;-87
2023/07/31 09:32:45;;;;;;;1.02;0.98;;;18.10;99.90;;;;;;5000530;28;20058;-88
2023/07/31 09:35:22;;;;;;;2.13;0.40;;;18.40;99.90;;;;;;4995182;28;20116;-85
2023/07/31 09:37:49;;;;;;;0.40;0.40;;;;;;;;;;5014218;28;20487;-89
2023/07/31 09:40:33;;;;;;;0.45;0.45;;;18.20;99.90;;;;;;5013325;28;20050;-89
2023/07/31 09:43:04;;;;;;;1.45;0.60;;;18.30;99.90;;;;;;4995764;28;20104;-89
2023/07/31 09:45:34;;;;;;;0.82;0.40;;;18.30;99.90;;;;;;4995771;28;20463;-88
2023/07/31 09:48:00;;;;;;;0.40;0.40;;;;;;;;;;5016508;28;20096;-90
2023/07/31 09:50:26;;;;;;;0.90;0.70;;;;;;;;;;4971540;28;20089;-87
2023/07/31 09:52:52;;;;;;;1.80;0.68;;;18.70;99.90;;;;;;4997057;28;20042;-87
2023/07/31 09:55:19;;;;;;;1.85;0.80;;;18.60;99.90;;;;;;4995637;28;20411;-89
2023/07/31 09:57:46;;;;;;;1.27;0.70;;;18.50;99.90;;;;;;5012868;28;20068;-90
2023/07/31 10:00:13;;;;;;;1.50;0.82;;;;;;;;;;4995074;28;20418;-88
2023/07/31 10:02:39;;;;;;;2.38;0.80;;;;;;;;;;4963000;28;20049;-87
2023/07/31 10:05:06;;;;;;;1.67;0.40;;;18.30;99.90;;;;;;4997210;28;20030;-84
2023/07/31 10:07:35;;;;;;;1.42;1.33;;;;;;;;;;5012642;28;20415;-87
2023/07/31 10:10:02;;;;;;;0.55;0.50;;;;;;;;;;4995139;28;20418;-87
2023/07/31 10:12:28;;;;;;;0.95;0.50;;;;;;;;;;4979130;28;20042;-86
2023/07/31 10:14:54;;;;;;;0.77;0.38;;;18.50;99.90;;;;;;4979115;28;20388;-88
2023/07/31 10:17:22;;;;;;;0.65;0.65;;;18.60;99.90;;;;;;4994980;28;20049;-86
2023/07/31 10:19:49;;;;;;;1.30;0.40;;;18.60;99.90;;;;;;4994831;28;20046;-87
2023/07/31 10:22:16;;;;;;;0.40;0.40;;;;;;;;;;4979004;28;20048;-88
2023/07/31 10:24:54;;;;;;;0.50;0.50;;;18.40;99.90;;;;;;4994580;28;20458;-85
2023/07/31 10:27:20;;;;;;;1.05;0.57;;;;;;;;;;4994683;28;20132;-87
2023/07/31 10:29:47;;;;;;;0.40;0.40;;;18.40;99.90;;;;;;4994733;28;20042;-84
2023/07/31 10:32:15;;;;;;;1.17;0.98;;;18.50;99.90;;;;;;4978179;28;20054;-85
2023/07/31 10:34:41;;;;;;;0.50;0.50;;;18.40;99.90;;;;;;4962321;28;20050;-83
2023/07/31 10:37:22;;;;;;;0.60;0.60;;;;;;;;;;4978375;28;20065;-86
2023/07/31 10:40:30;;;;;;;0.60;0.60;;;18.50;99.90;;;;;;4978448;28;20116;-85
2023/07/31 10:43:00;;;;;;;1.88;0.68;;;;;;;;;;4973901;28;20065;-87
2023/07/31 10:45:36;;;;;;;1.00;0.70;;;18.50;99.90;;;;;;4978286;28;20042;-86
2023/07/31 10:48:06;;;;;;;2.08;0.80;;;18.60;99.90;;;;;;4978061;28;20052;-86
2023/07/31 10:50:46;;;;;;;0.90;0.70;;;18.90;99.90;;;;;;4979227;28;20077;-87
2023/07/31 10:53:30;;;;;;;0.68;0.65;;;18.90;99.90;;;;;;4980662;28;20532;-86
2023/07/31 10:56:00;;;;;;;0.80;0.80;;;18.80;99.90;;;;;;4994703;28;20104;-86
2023/07/31 10:58:26;;;;;;;0.50;0.50;;;;;;;;;;4978652;28;20495;-88
2023/07/31 11:00:56;;;;;;;0.52;0.50;;;19.00;99.90;;;;;;4962116;28;20052;-83
2023/07/31 11:03:25;;;;;;;2.20;0.60;;;18.70;99.90;;;;;;4978173;28;20058;-84
2023/07/31 11:05:58;;;;;;;0.90;0.60;;;19.00;99.90;;;;;;4982515;28;20078;-84
2023/07/31 11:08:33;;;;;;;0.95;0.73;;;19.10;99.90;;;;;;4981914;28;20483;-84
2023/07/31 11:11:02;;;;;;;0.95;0.65;;;18.70;99.90;;;;;;4965982;28;20128;-86
2023/07/31 11:13:28;;;;;;;0.90;0.90;;;18.80;99.90;;;;;;4982282;28;20046;-82
2023/07/31 11:15:54;;;;;;;2.00;0.85;;;;;;;;;;4982109;28;20450;-88
2023/07/31 11:18:21;;;;;;;0.90;0.90;;;;;;;;;;4981755;28;20046;-82
2023/07/31 11:20:47;;;;;;;1.15;0.88;;;;;;;;;;4982053;28;20136;-82
2023/07/31 11:23:13;;;;;;;0.93;0.77;;;;;;;;;;4981569;28;20491;-84
2023/07/31 11:25:43;;;;;;;1.42;0.70;;;18.60;99.90;;;;;;4981580;28;20049;-87
2023/07/31 11:28:11;;;;;;;0.60;0.60;;;18.70;99.90;;;;;;4950005;28;20064;-84
2023/07/31 11:30:37;;;;;;;2.55;0.70;;;;;;;;;;4997877;28;20046;-86
2023/07/31 11:33:04;;;;;;;1.10;0.88;;;;;;;;;;4993905;28;20521;-84
2023/07/31 11:35:31;;;;;;;0.90;0.90;;;19.00;99.90;;;;;;4978155;28;20503;-83
2023/07/31 11:37:57;;;;;;;1.70;1.23;;;;;;;;;;4962006;28;20045;-84
2023/07/31 11:40:28;;;;;;;5.15;1.60;;;;;;;;;;4994356;28;20042;-84
2023/07/31 11:42:58;;;;;;;5.95;1.70;;;18.90;99.90;;;;;;4994071;28;20181;-85
2023/07/31 11:45:28;;;;;;;2.05;1.55;;;;;;;;;;4961832;28;20042;-87
2023/07/31 11:47:57;;;;;;;1.55;1.40;;;18.90;99.90;;;;;;4977805;28;20057;-86
2023/07/31 11:50:26;;;;;;;2.38;1.23;;;19.00;99.90;;;;;;4978109;28;20097;-86
2023/07/31 11:52:58;;;;;;;3.13;1.20;;;19.00;99.90;;;;;;4977966;28;20105;-85
2023/07/31 11:55:26;;;;;;;1.40;1.30;;;19.00;99.90;;;;;;4977944;28;20049;-83
2023/07/31 11:57:54;;;;;;;2.38;1.25;;;19.00;99.90;;;;;;4977943;28;20046;-83
2023/07/31 12:00:20;;;;;;;2.85;1.20;;;;;;;;;;4962193;28;20223;-86
2023/07/31 12:02:46;;;;;;;2.05;1.40;;;;;;;;;;4993694;28;20454;-85
2023/07/31 12:05:13;;;;;;;1.08;1.02;;;19.10;99.90;;;;;;4961658;28;20045;-84
2023/07/31 12:07:50;;;;;;;2.65;1.20;;;19.00;99.90;;;;;;4977679;28;20459;-85
2023/07/31 12:10:42;;;;;;;2.00;1.13;;;19.20;99.90;;;;;;4993935;28;20045;-84
2023/07/31 12:13:13;;;;;;;1.45;1.20;;;19.10;99.90;;;;;;4973967;28;20046;-88
2023/07/31 12:15:43;;;;;;;1.35;1.25;;;19.00;99.90;;;;;;4976897;28;20646;-86
2023/07/31 12:18:20;;;;;;;2.35;1.40;;;19.00;99.90;;;;;;4922183;29;20055;-86
2023/07/31 12:20:48;;;;;;;3.30;1.50;;;19.10;99.90;;;;;;4937988;29;20055;-85
2023/07/31 12:23:15;;;;;;;2.05;1.52;;;;;;;;;;4938102;29;20070;-86
2023/07/31 12:25:41;;;;;;;1.83;1.30;;;19.20;99.90;;;;;;4922143;29;20051;-86
2023/07/31 12:28:11;;;;;;;2.42;1.23;;;;;;;;;;4937051;29;20059;-87
2023/07/31 12:30:38;;;;;;;1.45;1.10;;;19.20;99.90;;;;;;4936152;29;20284;-86
2023/07/31 12:33:15;;;;;;;1.63;1.52;;;19.30;99.90;;;;;;4919805;29;20428;-85
2023/07/31 12:35:44;;;;;;;1.58;1.10;;;19.30;99.90;;;;;;4920898;29;20047;-88
2023/07/31 12:38:10;;;;;;;2.70;1.40;;;;;;;;;;4923297;29;20058;-87
2023/07/31 12:40:40;;;;;;;3.08;1.45;;;19.80;96.40;;;;;;4939356;29;20571;-89
2023/07/31 12:43:06;;;;;;;1.75;1.40;;;19.40;99.90;;;;;;4939017;29;20055;-86
2023/07/31 12:45:33;;;;;;;3.15;1.20;;;;;;;;;;4922205;29;20607;-87
2023/07/31 12:47:59;;;;;;;4.72;1.60;;;19.60;98.90;;;;;;4922802;28;20103;-89
2023/07/31 12:50:27;;;;;;;4.13;1.63;;;;;;;;;;4977207;28;20143;-88
2023/07/31 12:52:57;;;;;;;6.85;2.42;;;19.50;99.90;;;;;;4977586;28;20411;-89
2023/07/31 12:55:23;;;;;;;5.10;1.77;;;;;;;;;;4977329;28;20042;-90
2023/07/31 12:57:50;;;;;;;3.20;1.95;;;19.30;96.90;;;;;;4977159;28;20050;-88
2023/07/31 13:00:16;;;;;;;5.68;1.88;;;;;;;;;;4961167;28;20161;-88
2023/07/31 13:02:42;;;;;;;6.93;2.63;;;;;;;;;;4976984;28;20046;-90
2023/07/31 13:05:09;;;;;;;5.65;2.70;;;;;;;;;;4977418;28;20042;-92
2023/07/31 13:07:36;;;;;;;4.47;2.00;;;;;;;;;;4961104;28;20046;-90
2023/07/31 13:10:02;;;;;;;7.40;2.50;;;;;;;;;;4977810;28;20039;-84
2023/07/31 13:12:28;;;;;;;7.30;2.05;;;;;;;;;;4979197;28;20108;-89
2023/07/31 13:14:54;;;;;;;8.13;2.22;;;19.60;99.90;;;;;;4979245;28;20038;-91
2023/07/31 13:17:20;;;;;;;5.97;2.20;;;;;;;;;;4946427;28;20115;-87
2023/07/31 13:19:47;;;;;;;5.25;2.22;;;;;;;;;;4961639;28;20057;-89
2023/07/31 13:22:12;;;;;;;10.80;2.35;;;19.40;97.30;;;;;;4977363;28;20085;-87
2023/07/31 13:24:38;;;;;;;2.75;2.00;;;;;;;;;;4981165;28;20057;-85
2023/07/31 13:27:04;;;;;;;9.27;2.40;;;19.70;97.20;;;;;;4985310;28;20404;-85
2023/07/31 13:29:31;;;;;;;6.60;3.10;;;;;;;;;;4946303;28;20054;-86
2023/07/31 13:31:58;;;;;;;8.95;2.58;;;;;;;;;;4977144;28;20039;-91
2023/07/31 13:34:24;;;;;;;10.38;2.70;;;;;;;;;;4976870;28;20104;-86
2023/07/31 13:36:50;;;;;;;7.65;2.67;;;;;;;;;;4961170;28;20046;-89
2023/07/31 13:39:16;;;;;;;5.55;2.28;;;;;;;;;;4993647;28;20073;-89
2023/07/31 13:41:42;;;;;;;9.13;3.03;;;19.80;99.90;;;;;;5005980;28;20106;-85
2023/07/31 13:44:08;;;;;;;6.40;2.72;;;;;;;;;;4986180;28;20046;-92
2023/07/31 13:46:34;;;;;;;6.07;2.65;;;;;;;;;;4994278;28;20035;-89
2023/07/31 13:49:01;;;;;;;5.18;2.67;;;;;;;;;;4999975;28;20049;-89
2023/07/31 13:51:28;;;;;;;4.35;2.28;;;;;;;;;;4989865;28;20034;-89
2023/07/31 13:53:54;;;;;;;5.97;2.13;;;;;;;;;;4994881;28;20082;-89
2023/07/31 13:56:20;;;;;;;3.22;1.88;;;20.20;63.70;;;;;;4995730;28;20034;-90
2023/07/31 13:58:46;;;;;;;3.97;2.30;;;;;;;;;;4963858;28;20078;-89
2023/07/31 14:01:12;;;;;;;5.40;2.33;;;;;;;;;;4994838;28;20507;-85
2023/07/31 14:03:38;;;;;;;5.47;2.47;;;;;;;;;;4976718;28;20053;-89
2023/07/31 14:06:04;;;;;;;4.40;1.92;;;;;;;;;;4976935;28;20587;-87
2023/07/31 14:08:30;;;;;;;6.20;2.47;;;;;;;;;;4994652;28;20093;-93